Date,TemperatureHighF,TemperatureAvgF,TemperatureLowF,DewpointHighF,DewpointAvgF,DewpointLowF,HumidityHigh,HumidityAvg,HumidityLow,PressureMaxIn,PressureMinIn,WindSpeedMaxMPH,WindSpeedAvgMPH,GustSpeedMaxMPH,PrecipitationSumIn
2013-1-1,23,16,5,16,10,0,84,75,57,30.29,30.14,5,2,10,0.01
2013-1-2,24,14,4,16,8,0,86,77,67,30.28,30.18,6,2,14,0.01
2013-1-3,31,22,14,26,18,9,87,81,73,30.37,30.18,6,2,14,0.00
2013-1-4,31,20,9,24,15,5,85,80,73,30.36,30.29,7,3,14,0.01
2013-1-5,35,28,21,31,24,16,92,84,78,30.30,30.02,8,3,17,0.06
2013-1-6,35,25,15,31,20,12,89,82,73,30.37,30.00,8,3,15,0.03
2013-1-7,36,27,15,29,22,12,89,81,73,30.39,30.16,11,5,20,0.00
2013-1-8,39,32,28,33,26,23,83,79,73,30.19,30.09,10,4,17,0.00
2013-1-9,49,38,29,37,30,24,86,75,45,30.51,30.08,6,2,15,0.00
2013-1-10,47,35,27,46,31,22,95,86,73,30.51,29.82,12,5,16,0.45
2013-1-11,55,51,46,52,48,44,95,89,81,29.83,29.70,17,8,26,0.59
2013-1-12,51,42,28,47,37,25,90,84,72,29.97,29.73,8,4,18,0.06
2013-1-13,28,20,13,25,16,8,90,85,78,30.33,29.89,5,2,12,0.06
2013-1-14,24,16,12,16,11,8,89,81,68,30.50,30.32,4,1,8,0.00
2013-1-15,28,19,10,22,15,6,89,83,74,30.47,30.16,5,1,9,0.00
2013-1-16,35,26,15,28,21,12,89,80,71,30.16,29.93,9,3,19,0.01
2013-1-17,34,29,19,29,22,15,87,75,57,30.45,30.10,7,2,15,0.01
2013-1-18,41,31,20,31,24,15,83,75,63,30.47,30.03,15,6,25,0.02
2013-1-19,51,40,33,39,32,23,81,73,62,30.05,29.81,10,5,22,0.01
2013-1-20,34,20,14,24,10,6,79,65,51,30.33,30.03,9,4,24,0.00
2013-1-21,16,10,4,10,0,-4,79,65,45,30.38,30.24,9,5,18,0.00
2013-1-22,15,8,1,2,-3,-5,78,61,45,30.48,30.37,5,2,14,0.00
2013-1-23,31,19,8,16,7,1,74,61,49,30.41,30.14,8,2,19,0.00
2013-1-24,23,15,6,9,3,-4,69,59,46,30.65,30.36,8,5,20,0.00
2013-1-25,35,25,19,19,15,6,82,64,51,30.37,30.03,8,4,16,0.00
2013-1-26,31,21,11,17,11,6,80,64,44,30.42,30.22,4,1,11,0.00
2013-1-27,41,30,21,39,26,15,94,82,70,30.39,29.93,10,5,20,0.03
2013-1-28,56,48,41,55,47,39,96,95,93,29.95,29.80,13,4,24,0.04
2013-1-29,62,57,50,58,55,49,96,92,86,29.80,29.36,17,8,26,1.42
2013-1-30,50,36,20,49,33,15,95,89,79,29.73,29.24,10,5,21,1.55
2013-1-31,20,13,4,15,6,-3,82,72,69,30.29,29.73,10,6,23,0.01
2013-2-1,20,10,2,15,2,-5,84,70,60,30.47,30.23,7,4,19,0.00
2013-2-2,27,20,11,23,16,7,89,83,74,30.24,30.05,6,3,14,0.00
2013-2-3,28,22,14,20,16,10,91,78,57,30.13,30.00,8,2,17,0.00
2013-2-4,37,28,21,28,22,16,86,77,66,30.05,29.81,12,4,19,0.02
2013-2-5,39,29,18,31,24,15,90,83,73,30.11,29.83,7,2,17,0.01
2013-2-6,42,34,24,31,28,22,92,78,63,30.23,30.08,7,2,14,0.00
2013-2-7,39,35,33,37,32,28,93,89,82,30.08,29.85,7,2,18,0.28
2013-2-8,33,28,23,30,23,19,91,84,80,30.40,29.99,7,3,18,0.01
2013-2-9,35,31,27,30,26,22,87,82,76,30.40,30.06,9,5,15,0.00
2013-2-10,49,41,34,46,38,28,93,88,71,30.07,29.54,16,9,27,0.43
2013-2-11,43,34,27,35,26,22,82,72,63,30.11,29.60,12,7,25,0.01
2013-2-12,37,29,24,28,24,20,90,82,66,30.16,29.96,4,1,11,0.00
2013-2-13,46,34,25,34,28,22,91,80,57,29.95,29.76,7,2,16,0.01
2013-2-14,41,36,32,33,30,27,88,79,69,30.01,29.72,9,4,18,0.01
2013-2-15,33,29,21,29,19,12,88,69,45,30.23,30.01,5,3,15,0.00
2013-2-16,28,20,13,14,10,6,80,66,50,30.24,30.15,6,3,17,0.00
2013-2-17,35,22,8,22,13,4,85,69,52,30.25,29.97,8,3,17,0.00
2013-2-18,53,40,26,45,33,20,90,76,67,29.98,29.47,19,10,30,0.25
2013-2-19,25,19,14,20,12,6,82,72,64,30.27,29.71,11,8,26,0.25
2013-2-20,24,16,6,15,8,0,84,72,55,30.42,30.26,5,2,12,0.00
2013-2-21,27,21,11,25,17,8,92,85,78,30.40,29.89,20,8,28,0.00
2013-2-22,33,29,25,30,26,21,94,89,80,30.00,29.80,12,4,17,0.04
2013-2-23,27,24,16,21,18,12,88,80,71,30.03,29.98,5,2,11,0.02
2013-2-24,39,26,15,28,20,11,90,79,60,30.16,30.02,2,0,6,0.00
2013-2-25,43,33,23,34,28,21,92,84,71,30.15,29.86,11,5,18,0.01
2013-2-26,33,32,31,30,29,27,94,91,81,29.86,29.45,17,5,26,0.50
2013-2-27,32,31,29,29,29,27,94,91,86,29.78,29.54,5,1,12,0.24
2013-2-28,36,32,30,30,29,26,91,87,78,30.08,29.78,6,3,13,0.06
2013-3-1,30,27,24,27,23,20,88,84,79,30.21,30.06,7,4,14,0.03
2013-3-2,30,24,14,20,17,8,83,75,65,30.23,30.18,6,3,14,0.01
2013-3-3,31,20,10,18,12,6,87,72,49,30.21,30.11,3,0,8,0.00
2013-3-4,33,29,21,28,24,16,86,82,78,30.13,29.92,14,8,22,0.00
2013-3-5,33,30,26,31,28,24,93,91,85,30.02,29.80,7,2,12,0.18
2013-3-6,31,27,25,26,24,21,92,86,81,30.35,30.02,5,1,12,0.08
2013-3-7,37,28,22,27,23,19,89,81,64,30.44,30.35,3,1,6,0.01
2013-3-8,39,29,18,33,25,16,91,86,74,30.48,30.28,8,3,14,0.01
2013-3-9,48,40,33,40,34,29,86,80,68,30.29,29.80,9,6,20,0.06
2013-3-10,52,48,44,49,45,39,94,88,75,29.81,29.58,12,4,21,0.80
2013-3-11,48,36,31,46,34,27,93,89,84,29.89,29.59,8,5,19,0.04
2013-3-12,40,31,26,31,25,19,90,79,64,30.12,29.89,8,5,19,0.01
2013-3-13,35,27,22,22,19,17,85,71,51,30.38,30.11,8,4,17,0.01
2013-3-14,41,31,21,31,24,17,86,76,59,30.38,30.10,8,3,15,0.00
2013-3-15,53,40,30,45,35,27,90,82,65,30.11,29.67,6,2,10,0.00
2013-3-16,41,35,30,39,31,25,94,86,74,30.11,29.64,8,4,15,0.00
2013-3-17,36,32,28,29,26,23,84,79,73,30.17,29.92,13,8,21,0.00
2013-3-18,38,32,24,34,28,15,93,86,67,29.93,29.67,12,7,22,0.03
2013-3-19,40,28,19,19,15,11,75,59,36,30.17,29.91,10,5,22,0.01
2013-3-20,29,23,15,19,10,5,74,59,43,30.19,30.09,10,5,19,0.00
2013-3-21,36,23,12,16,11,7,81,61,37,30.13,30.03,6,1,13,0.00
2013-3-22,44,29,13,25,17,10,91,63,35,30.10,30.01,4,1,9,0.00
2013-3-23,46,36,27,28,25,22,84,65,45,30.11,29.96,10,4,15,0.00
2013-3-24,31,29,27,28,27,24,94,90,74,29.98,29.61,12,8,18,0.02
2013-3-25,35,30,26,29,26,23,93,86,77,30.12,29.72,7,4,18,0.15
2013-3-26,38,33,30,27,25,22,80,72,53,30.30,30.13,4,2,12,0.01
2013-3-27,43,34,26,28,24,21,86,67,43,30.37,30.30,4,1,9,0.01
2013-3-28,49,37,25,33,26,20,83,68,47,30.39,30.29,3,0,7,0.00
2013-3-29,56,42,33,38,32,28,87,68,40,30.32,30.21,5,1,9,0.00
2013-3-30,54,44,29,43,35,-100,91,76,54,30.22,29.89,11,3,17,0.00
2013-3-31,61,49,40,45,39,27,92,70,41,29.92,29.77,10,4,20,0.00
2013-4-1,42,36,28,28,20,16,77,55,36,30.22,29.92,7,4,16,0.00
2013-4-2,46,34,23,21,17,13,77,52,26,30.34,30.22,5,2,14,0.00
2013-4-3,49,36,25,22,19,16,71,52,29,30.45,30.31,10,3,15,0.00
2013-4-4,58,41,21,27,22,17,87,52,24,30.31,30.01,5,1,12,0.00
2013-4-5,58,45,34,34,27,19,80,52,25,30.18,30.02,10,4,16,0.00
2013-4-6,69,54,36,47,34,22,76,48,31,30.09,29.65,22,10,34,0.11
2013-4-7,69,55,39,46,42,36,92,65,38,29.93,29.68,7,1,12,0.11
2013-4-8,73,62,47,58,53,39,87,73,56,29.87,29.64,16,5,28,0.12
2013-4-9,77,65,51,61,56,48,93,75,53,29.88,29.76,14,4,24,0.02
2013-4-10,59,46,41,52,43,39,94,90,77,29.88,29.67,13,6,23,1.21
2013-4-11,49,44,37,46,41,31,94,90,80,29.78,29.59,15,5,28,1.21
2013-4-12,41,38,36,35,33,30,86,81,75,29.92,29.63,8,4,19,0.01
2013-4-13,50,42,35,38,32,26,83,68,50,30.01,29.91,8,4,18,0.00
2013-4-14,73,57,41,54,45,37,87,66,43,29.97,29.62,16,6,27,0.00
2013-4-15,62,54,45,54,49,42,92,83,57,29.98,29.66,17,5,30,0.40
2013-4-16,52,46,41,44,40,37,92,82,65,30.20,29.91,9,3,14,0.96
2013-4-17,58,48,42,56,44,36,94,87,80,30.22,29.75,12,8,19,0.09
2013-4-18,66,55,40,62,52,33,95,90,77,29.75,29.45,15,6,26,1.22
2013-4-19,39,37,35,34,30,27,85,76,70,30.01,29.59,9,6,26,0.05
2013-4-20,48,38,30,33,28,25,85,68,45,30.39,30.01,5,2,12,0.00
2013-4-21,55,43,30,41,34,27,89,73,54,30.48,30.30,12,6,20,0.00
2013-4-22,66,52,37,46,39,32,83,63,38,30.30,30.01,10,3,16,0.00
2013-4-23,58,49,37,52,43,34,92,83,65,30.03,29.88,8,4,15,0.44
2013-4-24,49,41,34,35,33,30,92,75,52,30.19,29.94,6,3,15,0.28
2013-4-25,54,44,37,34,31,26,83,61,38,30.32,30.13,8,4,19,0.01
2013-4-26,63,50,35,48,40,30,84,68,52,30.35,30.26,10,4,19,0.00
2013-4-27,64,52,40,50,46,38,94,80,49,30.29,29.96,11,4,17,0.32
2013-4-28,61,55,51,55,52,49,95,90,77,29.96,29.83,4,2,8,0.36
2013-4-29,72,60,45,60,52,43,94,79,61,29.91,29.74,9,4,18,0.01
2013-4-30,82,70,59,64,58,54,84,68,41,29.91,29.75,11,7,20,0.01
2013-5-1,81,70,55,60,55,51,88,61,37,30.08,29.91,7,3,13,0.00
2013-5-2,73,61,47,59,54,44,90,78,58,30.11,30.04,8,2,14,0.34
2013-5-3,66,53,42,61,50,40,94,89,80,30.07,29.81,12,7,23,0.66
2013-5-4,64,58,54,57,54,50,91,86,71,30.00,29.84,11,6,17,0.27
2013-5-5,70,58,52,57,52,49,94,81,51,30.00,29.89,11,4,19,0.02
2013-5-6,74,62,52,56,49,43,88,65,35,29.98,29.91,9,3,14,0.01
2013-5-7,80,65,48,52,46,38,83,53,28,30.01,29.93,7,1,12,0.01
2013-5-8,81,66,48,55,48,43,91,59,27,30.01,29.93,2,0,8,0.01
2013-5-9,66,62,60,61,57,49,93,83,63,29.95,29.79,8,3,15,0.39
2013-5-10,60,53,48,58,49,-100,94,89,84,29.96,29.78,6,3,14,0.01
2013-5-11,61,52,41,52,39,-100,89,66,34,30.08,29.90,9,3,25,0.00
2013-5-12,57,47,36,32,29,26,74,52,31,30.16,30.08,8,2,15,0.00
2013-5-13,67,54,36,39,33,29,78,49,27,30.20,30.02,6,2,14,0.00
2013-5-14,89,71,55,62,52,38,67,52,36,30.02,29.67,9,6,20,0.00
2013-5-15,82,74,67,62,56,51,63,54,41,29.81,29.69,7,3,15,0.05
2013-5-16,82,66,61,61,35,-100,78,58,33,29.90,29.78,8,2,13,0.07
2013-5-17,79,69,57,63,54,-100,89,68,43,29.96,29.89,9,3,21,0.00
2013-5-18,79,69,59,64,60,56,92,74,56,30.00,29.88,7,2,15,0.23
2013-5-19,88,75,59,71,64,55,93,72,49,29.90,29.69,9,4,19,0.21
2013-5-20,86,75,64,68,62,56,88,64,37,29.81,29.66,14,8,26,0.44
2013-5-21,79,70,61,68,63,58,89,78,61,29.74,29.62,10,5,18,0.66
2013-5-22,71,65,60,64,59,54,94,80,61,29.76,29.59,7,3,13,1.25
2013-5-23,60,55,46,55,50,39,92,84,74,30.24,29.76,8,3,18,0.07
2013-5-24,65,51,38,48,40,33,89,68,40,30.41,30.24,7,3,14,0.01
2013-5-25,54,49,44,49,42,37,91,77,59,30.39,30.22,11,3,16,0.36
2013-5-26,62,55,49,57,51,45,91,86,81,30.26,30.04,14,6,20,0.42
2013-5-27,69,62,56,64,59,54,93,90,81,30.10,29.78,14,4,20,1.44
2013-5-28,76,69,63,70,64,59,92,85,77,29.84,29.73,13,6,22,0.15
2013-5-29,83,73,62,70,65,59,91,77,61,29.92,29.81,10,5,18,0.63
2013-5-30,82,73,62,70,66,59,92,77,63,29.88,29.75,16,8,27,0.52
2013-5-31,74,68,63,70,64,59,94,87,76,29.85,29.63,11,5,26,2.50
2013-6-1,73,66,61,66,61,57,90,85,76,29.77,29.65,13,6,22,0.51
2013-6-2,62,59,53,58,54,50,91,85,76,30.03,29.76,4,2,11,0.31
2013-6-3,65,57,48,52,48,45,91,74,53,30.11,30.01,6,2,13,0.01
2013-6-4,72,61,48,56,51,45,91,72,52,30.11,30.01,8,3,12,0.01
2013-6-5,78,67,54,60,56,51,90,69,48,30.03,29.84,4,1,12,0.00
2013-6-6,74,64,57,60,55,50,83,73,57,29.86,29.80,8,2,13,0.00
2013-6-7,74,62,52,59,51,47,84,69,50,29.90,29.84,6,3,12,0.00
2013-6-8,77,65,49,56,50,42,80,59,40,29.95,29.89,4,1,10,0.00
2013-6-9,80,70,59,62,58,54,88,68,44,29.94,29.75,10,4,18,0.00
2013-6-10,79,68,59,64,60,56,92,75,50,29.86,29.71,4,1,11,0.00
2013-6-11,85,74,59,71,63,56,91,72,52,29.92,29.78,7,2,14,0.00
2013-6-12,94,82,70,72,69,65,88,67,40,29.85,29.54,11,4,29,0.00
2013-6-13,82,73,64,71,59,53,89,63,40,29.97,29.60,7,4,19,0.02
2013-6-14,79,68,54,58,53,49,86,61,38,30.09,29.94,6,2,10,0.02
2013-6-15,78,71,64,68,61,54,89,69,56,30.03,29.85,12,4,26,0.26
2013-6-16,82,72,65,69,65,61,90,80,63,29.96,29.86,6,2,14,0.25
2013-6-17,87,76,65,68,61,53,92,63,32,29.92,29.84,2,0,8,0.01
2013-6-18,81,71,62,64,60,52,93,69,48,30.00,29.84,9,4,15,0.01
2013-6-19,83,70,53,62,56,48,84,62,42,30.07,29.99,5,2,18,0.00
2013-6-20,87,74,64,67,61,58,85,65,40,30.10,30.03,5,2,11,0.00
2013-6-22,79,73,68,73,68,63,88,82,78,30.04,29.95,7,4,16,0.01
2013-6-23,84,74,66,72,67,62,89,80,63,30.01,29.90,9,4,19,0.00
2013-6-24,87,73,66,74,66,62,92,82,61,30.05,29.85,7,2,14,0.21
2013-6-25,85,75,68,75,69,64,94,82,69,29.91,29.77,7,4,15,0.12
2013-6-26,84,76,70,74,70,64,91,82,68,29.83,29.67,8,3,15,0.42
2013-6-27,87,78,70,74,70,65,93,76,59,29.79,29.70,5,2,15,0.33
2013-6-28,83,74,66,67,63,58,84,69,46,29.74,29.60,7,2,18,0.03
2013-6-29,71,66,62,65,61,56,91,85,77,29.72,29.57,6,2,12,0.60
2013-6-30,75,67,60,64,58,48,90,75,56,29.93,29.72,10,4,18,0.11
2013-7-1,76,68,58,56,52,48,79,59,41,29.99,29.92,9,5,18,0.02
2013-7-2,71,64,58,61,55,52,89,74,61,30.02,29.96,7,3,14,0.00
2013-7-3,77,66,58,63,58,55,90,77,49,30.05,29.98,2,0,8,0.00
2013-7-4,81,71,59,64,60,54,88,68,50,30.07,29.99,6,2,12,0.04
2013-7-5,82,72,59,68,62,56,94,74,50,30.06,29.98,5,1,11,0.05
2013-7-6,82,71,62,69,64,59,94,79,49,30.03,29.94,4,1,8,0.01
2013-7-7,88,77,66,72,67,61,87,72,52,29.99,29.92,7,2,16,0.00
2013-7-8,85,77,72,75,70,68,91,80,61,30.02,29.92,8,2,17,0.17
2013-7-9,88,80,75,75,73,71,90,80,64,29.97,29.84,6,2,12,0.02
2013-7-10,86,76,66,74,67,-100,91,77,56,29.97,29.80,7,2,15,0.02
2013-7-11,79,69,57,62,59,55,94,71,47,30.05,29.96,6,2,13,0.00
2013-7-12,81,70,50,62,54,48,94,62,35,30.12,30.03,6,1,11,0.00
2013-7-13,81,70,54,65,60,52,93,73,50,30.11,30.04,6,2,11,0.00
2013-7-14,87,75,60,73,66,58,93,76,57,30.15,30.07,5,1,16,0.00
2013-7-15,87,77,67,76,71,65,93,82,66,30.22,30.14,3,0,11,0.00
2013-7-16,89,80,69,74,70,67,94,74,51,30.27,30.21,6,1,12,0.00
2013-7-17,93,80,69,75,70,66,91,75,49,30.29,30.20,3,1,8,0.00
2013-7-18,92,83,72,76,73,69,91,72,55,30.16,29.96,5,2,15,0.00
2013-7-19,93,83,74,77,73,70,88,72,52,29.95,29.77,7,4,18,0.00
2013-7-20,86,79,67,73,68,63,89,70,48,29.88,29.77,6,2,11,0.00
2013-7-21,82,73,61,72,67,58,93,83,66,29.91,29.81,3,0,7,0.17
2013-7-22,86,76,65,72,68,63,93,79,57,29.83,29.73,4,1,10,0.18
2013-7-23,82,72,61,70,64,56,92,76,56,29.91,29.72,6,2,19,0.03
2013-7-24,75,64,55,58,54,51,91,73,50,30.03,29.91,7,2,14,0.01
2013-7-25,80,66,49,60,55,46,92,69,45,30.10,30.02,3,0,7,0.00
2013-7-26,72,66,61,66,61,56,91,84,71,30.04,29.89,6,2,14,0.26
2013-7-27,68,61,52,59,52,47,92,75,55,29.95,29.88,6,2,13,0.01
2013-7-28,73,61,49,54,51,45,88,70,51,30.03,29.91,6,2,15,0.01
2013-7-29,77,63,47,58,52,45,93,72,44,30.14,30.03,4,1,9,0.00
2013-7-30,67,64,58,65,61,54,93,89,79,30.14,30.01,6,1,13,0.33
2013-7-31,74,69,64,69,65,61,95,89,78,30.02,29.94,4,0,8,0.05
2013-8-1,81,71,60,64,60,56,94,71,45,30.02,29.93,5,1,14,0.01
2013-8-2,83,73,62,70,65,58,92,77,56,29.93,29.85,6,3,14,0.39
2013-8-3,80,71,61,65,61,56,93,72,47,30.07,29.91,4,1,10,0.41
2013-8-4,79,67,53,62,56,51,94,72,42,30.15,30.06,2,0,7,0.01
2013-8-5,76,67,55,65,60,53,94,79,58,30.08,29.86,8,2,14,0.05
2013-8-6,85,73,65,75,68,62,92,83,64,29.89,29.80,5,1,10,0.05
2013-8-7,85,75,69,76,70,66,93,87,72,29.88,29.78,9,2,13,0.52
2013-8-8,78,71,63,68,64,58,93,81,68,29.96,29.88,7,2,11,0.01
2013-8-9,80,69,56,66,60,53,92,75,56,30.03,29.95,3,0,8,0.01
2013-8-10,81,72,60,65,61,55,90,71,51,30.10,30.02,4,1,9,0.00
2013-8-11,82,69,52,65,59,50,94,73,52,30.11,30.02,2,0,7,0.00
2013-8-12,81,72,63,71,65,59,91,79,67,30.04,29.85,5,1,10,0.09
2013-8-13,73,64,51,63,54,-100,91,73,44,30.12,29.89,6,2,12,0.09
2013-8-14,72,58,45,55,46,-100,93,73,47,30.21,30.11,3,0,9,0.01
2013-8-15,74,57,51,59,40,-100,91,70,45,30.17,30.08,4,0,9,0.00
2013-8-16,77,65,57,60,53,-100,92,71,45,30.15,30.10,5,1,9,0.00
2013-8-17,77,67,49,61,54,-100,94,68,52,30.21,30.12,6,2,14,0.00
2013-8-18,82,70,50,63,58,47,93,69,49,30.18,30.07,5,1,9,0.00
2013-8-19,83,66,54,66,50,-100,93,73,50,30.11,30.01,5,1,10,0.00
2013-8-20,86,72,59,67,61,-100,93,74,50,30.09,30.01,6,1,13,0.00
2013-8-21,87,74,61,69,65,58,93,75,48,30.08,29.97,5,2,12,0.00
2013-8-22,78,72,67,69,66,64,92,83,71,30.09,29.99,6,2,15,0.03
2013-8-23,82,70,61,69,64,57,94,82,57,30.13,30.05,6,2,13,0.01
2013-8-24,86,70,54,70,60,-100,93,75,51,30.21,30.12,5,1,9,0.01
2013-8-25,88,74,59,68,62,55,92,68,47,30.24,30.14,5,2,11,0.00
2013-8-26,89,78,66,73,68,61,90,73,56,30.16,29.99,5,2,11,0.00
2013-8-27,90,78,71,74,70,68,90,79,56,30.00,29.91,6,3,13,0.00
2013-8-28,93,86,72,77,74,68,90,70,57,29.97,29.89,3,1,11,0.01
2013-8-29,84,73,66,73,69,63,94,86,66,30.03,29.94,4,1,9,0.01
2013-8-30,95,78,63,77,69,61,94,75,50,29.95,29.75,9,2,14,0.00
2013-8-31,93,76,64,77,66,-100,90,75,57,29.79,29.68,5,2,11,0.32
2013-9-1,85,75,69,72,68,63,92,80,63,29.79,29.71,4,1,11,0.32
2013-9-2,83,71,62,64,60,55,88,71,49,29.94,29.78,4,1,10,0.00
2013-9-3,77,63,53,60,55,51,94,79,50,30.05,29.94,3,0,8,0.00
2013-9-4,84,68,52,63,56,49,93,69,40,30.14,30.03,3,1,8,0.00
2013-9-5,85,71,60,69,61,54,86,72,53,30.17,30.09,4,1,8,0.00
2013-9-6,86,70,55,66,60,52,90,71,50,30.16,30.00,5,1,13,0.00
2013-9-7,87,72,60,68,61,-100,91,72,45,30.01,29.87,7,2,13,0.01
2013-9-8,86,76,68,72,68,64,92,78,59,29.95,29.85,5,1,10,0.12
2013-9-9,94,80,66,74,70,64,94,75,50,29.90,29.81,6,3,15,0.08
2013-9-10,95,82,70,71,67,63,85,64,37,30.01,29.89,7,3,16,0.00
2013-9-11,93,80,70,69,66,64,88,66,38,30.04,29.96,6,2,15,0.00
2013-9-12,83,72,59,69,60,47,91,69,32,30.03,29.93,6,2,18,0.11
2013-9-13,69,59,46,51,46,41,90,65,36,30.15,30.03,6,2,12,0.01
2013-9-14,72,57,38,47,41,-100,93,61,34,30.18,30.03,4,1,9,0.00
2013-9-15,68,60,55,59,52,45,91,75,59,30.11,29.96,6,2,13,0.17
2013-9-16,70,60,49,56,52,44,93,77,53,30.29,30.11,7,3,15,0.06
2013-9-17,75,58,43,57,50,41,94,78,51,30.29,30.08,6,1,13,0.00
2013-9-18,75,65,60,68,56,53,83,74,69,30.09,29.92,6,2,12,0.00
2013-9-19,92,79,70,70,68,66,89,71,46,29.93,29.76,9,4,19,0.00
2013-9-20,78,67,56,70,60,50,93,81,61,29.85,29.78,6,2,17,0.25
2013-9-21,70,58,48,53,47,-100,90,71,44,29.92,29.83,6,1,13,0.01
2013-9-22,71,55,38,50,45,36,94,73,42,30.03,29.92,3,1,9,0.01
2013-9-23,75,57,40,51,44,38,93,68,33,30.07,29.96,4,1,10,0.00
2013-9-24,77,64,41,56,51,39,92,65,43,29.99,29.85,4,2,10,0.00
2013-9-25,80,63,48,58,52,45,90,70,45,29.91,29.84,6,1,12,0.00
2013-9-26,82,63,46,56,50,44,93,68,34,30.02,29.91,6,1,10,0.00
2013-9-27,82,74,46,55,50,43,91,45,30,30.12,30.01,6,3,14,0.00
2013-9-28,82,68,51,63,54,-100,93,65,43,30.04,29.88,12,5,23,0.02
2013-9-29,71,60,47,63,50,43,93,72,39,30.03,29.92,4,2,10,0.28
2013-9-30,76,61,41,58,50,39,94,71,43,29.98,29.86,6,2,13,0.01
2013-10-1,70,67,65,64,63,62,91,88,82,29.96,29.93,2,1,6,0.00
2013-10-2,81,70,64,67,64,62,94,84,59,30.04,29.94,5,1,9,0.01
2013-10-3,81,70,64,69,65,60,93,86,61,29.94,29.81,8,3,31,0.84
2013-10-4,84,74,62,70,66,59,92,77,55,29.94,29.87,7,3,14,0.66
2013-10-5,80,72,59,70,66,53,92,82,61,29.90,29.75,6,4,13,0.00
2013-10-6,59,51,45,54,44,38,90,77,53,29.80,29.72,8,3,19,0.04
2013-10-7,68,54,42,49,45,39,93,74,46,30.09,29.80,6,2,14,0.01
2013-10-8,75,60,47,49,46,43,85,63,36,30.19,30.09,5,1,12,0.01
2013-10-9,74,60,41,50,44,39,92,61,33,30.21,30.09,4,1,10,0.00
2013-10-10,75,66,45,60,54,43,93,68,49,30.15,30.01,5,1,10,0.00
2013-10-11,78,65,54,60,54,50,89,70,45,30.03,29.89,8,2,17,0.00
2013-10-12,72,62,49,62,52,-100,89,72,49,30.17,29.92,6,2,13,0.02
2013-10-13,67,55,41,43,35,27,82,52,24,30.37,30.17,5,1,10,0.02
2013-10-14,68,57,33,45,37,30,93,52,25,30.37,30.14,7,3,13,0.01
2013-10-15,67,59,49,62,52,42,91,79,63,30.08,29.80,11,4,18,0.07
2013-10-16,54,49,44,44,42,39,84,76,68,29.98,29.89,6,2,15,0.01
2013-10-17,59,49,45,46,42,37,92,76,48,29.96,29.85,5,1,14,0.12
2013-10-18,53,45,38,41,38,35,91,78,59,30.01,29.88,5,1,12,0.02
2013-10-19,54,45,39,40,36,-100,91,72,45,29.98,29.84,8,3,19,0.09
2013-10-20,68,53,38,44,40,34,86,64,38,29.89,29.74,11,5,22,0.01
2013-10-21,56,46,27,44,34,23,83,65,42,30.01,29.83,8,2,16,0.00
2013-10-22,43,36,28,39,31,23,92,83,73,30.02,29.85,6,2,12,0.45
2013-10-23,43,38,33,34,31,27,92,77,55,30.08,29.95,4,1,13,0.15
2013-10-24,40,36,30,33,27,23,90,70,53,30.35,30.07,7,2,14,0.01
2013-10-25,51,43,26,32,28,22,86,58,38,30.46,30.14,7,3,17,0.00
2013-10-26,56,44,34,38,30,-100,78,59,38,30.15,29.93,8,4,19,0.00
2013-10-27,55,41,27,35,29,23,87,65,38,30.11,30.00,6,2,12,0.00
2013-10-28,61,44,30,40,30,-100,86,65,34,30.31,30.06,7,1,13,0.00
2013-10-29,57,44,31,48,39,29,93,83,55,30.31,30.11,4,1,9,0.01
2013-10-30,64,57,50,62,55,48,94,93,91,30.13,29.78,10,3,19,1.49
2013-10-31,64,57,45,62,55,42,94,91,88,29.79,29.26,13,5,23,0.47
2013-11-1,50,46,43,44,42,39,92,85,74,29.78,29.49,9,3,19,0.04
2013-11-2,48,41,34,40,34,-100,92,80,63,30.16,29.77,5,1,12,0.00
2013-11-3,52,40,26,39,33,24,93,78,55,30.31,30.15,6,2,13,0.01
2013-11-4,56,49,41,44,40,34,79,70,55,30.23,30.10,13,6,22,0.01
2013-11-5,56,52,50,51,47,44,92,84,77,30.25,29.95,12,5,20,0.11
2013-11-6,56,47,34,53,43,28,92,87,78,30.20,29.83,14,6,23,0.93
2013-11-7,48,35,27,37,29,23,89,79,58,30.32,30.20,7,2,20,0.01
2013-11-8,48,40,27,34,30,24,90,68,47,30.36,30.02,13,4,23,0.00
2013-11-9,61,49,41,43,36,-100,79,62,43,30.17,29.94,12,6,24,0.00
2013-11-10,48,40,32,35,31,27,81,71,51,30.40,30.17,4,2,13,0.00
2013-11-11,51,39,25,40,32,17,91,77,61,30.52,30.13,8,4,16,0.05
2013-11-12,31,23,17,21,17,13,86,77,65,30.75,30.51,6,2,13,0.09
2013-11-13,39,28,15,23,19,12,87,70,51,30.68,30.24,8,4,17,0.01
2013-11-14,51,39,29,29,24,20,72,57,37,30.24,29.99,9,6,20,0.01
2013-11-15,49,41,36,38,32,27,85,72,62,30.02,29.93,7,3,14,0.00
2013-11-16,59,52,42,56,48,-100,90,85,78,29.94,29.59,15,9,30,0.16
2013-11-17,69,57,42,63,51,36,91,82,69,29.83,29.20,18,10,32,0.35
2013-11-18,47,40,31,38,32,25,86,73,51,30.27,29.83,8,4,22,0.02
2013-11-19,43,33,24,31,27,21,89,79,59,30.37,30.26,6,2,10,0.00
2013-11-20,42,36,29,38,31,25,90,82,69,30.27,30.06,8,4,16,0.25
2013-11-21,48,46,42,45,42,38,94,87,77,30.21,30.09,5,1,10,0.27
2013-11-22,43,36,26,41,32,23,93,87,77,30.51,30.19,7,3,16,0.01
2013-11-23,27,21,14,24,13,-100,89,72,56,30.76,30.49,6,3,20,0.01
2013-11-24,27,18,8,12,8,4,82,66,42,30.79,30.45,5,2,10,0.00
2013-11-25,31,27,21,24,19,11,83,70,58,30.45,30.14,9,5,18,0.00
2013-11-26,34,27,17,27,19,7,83,73,61,30.21,30.07,7,2,21,0.00
2013-11-27,27,18,12,12,8,4,76,65,50,30.31,30.20,6,2,16,0.00
2013-11-28,37,26,18,21,16,11,77,64,50,30.52,30.22,9,3,18,0.00
2013-11-29,37,25,10,23,17,6,89,74,53,30.65,30.41,6,2,11,0.00
2013-11-30,50,38,31,34,27,-100,80,67,50,30.41,30.09,7,4,14,0.00
2013-12-1,47,36,26,34,29,23,92,78,55,30.12,29.97,3,1,8,0.00
2013-12-2,43,35,26,36,32,24,93,87,75,29.97,29.70,7,3,13,0.00
2013-12-3,49,44,38,47,42,36,94,93,91,29.71,29.64,7,3,11,0.01
2013-12-4,56,49,39,54,47,33,95,92,84,29.77,29.48,11,4,18,0.01
2013-12-5,38,25,19,34,18,11,87,75,66,30.30,29.75,8,4,17,0.00
2013-12-6,19,16,12,12,9,5,75,72,66,30.60,30.28,5,2,13,0.00
2013-12-7,21,12,7,8,3,-100,82,71,46,30.75,30.58,4,2,12,0.00
2013-12-8,25,20,11,23,16,5,91,85,77,30.60,30.02,13,6,16,0.00
2013-12-9,24,17,5,21,11,-2,89,76,62,30.29,30.02,8,4,17,0.00
2013-12-10,26,13,1,14,5,-5,81,70,53,30.36,30.13,10,3,23,0.00
2013-12-11,22,15,1,16,8,-7,84,72,55,30.65,30.29,6,2,15,0.00
2013-12-12,28,14,0,16,6,-5,79,71,59,30.65,30.26,8,3,17,0.00
2013-12-13,37,27,17,28,21,11,93,78,59,30.27,30.05,5,2,10,0.00
2013-12-14,31,28,18,29,24,-100,93,90,86,30.06,29.89,6,4,14,0.05
2013-12-15,20,15,10,17,10,6,89,82,74,30.15,30.05,5,2,13,0.01
2013-12-16,20,16,12,18,13,9,91,88,85,30.16,30.05,7,3,10,0.00
2013-12-17,33,24,19,27,20,15,92,85,72,30.20,30.07,7,3,12,0.07
2013-12-18,37,26,12,32,18,7,82,73,52,30.23,29.89,15,6,27,0.09
2013-12-19,45,40,36,42,36,31,92,87,81,29.92,29.75,9,5,17,0.12
2013-12-20,46,38,30,44,36,28,94,94,91,29.83,29.69,5,2,12,0.13
2013-12-21,32,30,28,30,27,-100,94,92,92,29.86,29.54,5,2,13,0.01
2013-12-22,32,29,22,30,27,19,94,91,85,30.20,29.59,5,2,13,0.41
2013-12-23,22,13,3,19,9,-3,88,81,72,30.55,30.20,7,4,16,0.01
2013-12-24,19,9,0,12,3,-5,80,76,72,30.64,30.40,8,3,14,0.00
2013-12-25,28,24,19,25,20,11,89,84,71,30.40,30.19,8,5,18,0.00
2013-12-26,37,29,17,29,23,13,88,78,69,30.36,30.20,9,4,16,0.01
2013-12-27,45,34,25,34,28,22,89,80,65,30.33,30.16,7,3,14,0.01
2013-12-28,52,39,33,39,31,-100,84,74,59,30.16,29.86,7,5,15,0.00
2013-12-29,37,26,9,30,22,4,91,85,77,30.25,29.81,7,4,17,0.00
2013-12-30,15,9,1,10,3,-4,83,77,64,30.39,30.24,4,1,11,0.00
2013-12-31,22,16,9,16,11,5,85,80,72,30.43,30.23,8,3,14,0.00
2014-1-1,22,19,16,18,16,12,89,86,84,30.27,30.14,10,7,15,0.00
2014-1-2,18,12,4,15,8,-1,89,84,79,30.48,30.12,7,4,17,0.00